Marthasville, Missouri
Current Conditions -  °F | °C
As of 2:55 AM on Monday 22 Dec 2014 (Local Time) from KFYG Reporting Station
Overcast Overcast  
Wind Chill: 35°   Ceiling: 6500
Heat Index: 41°   Visibility: 10mi
Dew Point: 32°   Wind: 9mph
Humidity: 70%   Direction: 130°SE
Pressure: 29.83"   Gusts: NA
Location:  38.63°N, 91.06°W
Report Text: KFYG 220855Z AUTO 13008KT 10SM SCT050 OVC065 05/00 A2983 RMK AO2
Loading
Personal Weather Stations






























Interactive Weather Map New forecast layout! Learn more

10-Day Weather Forecast

Advertisements
Track Severe Weather on mobile